Time;durP1;ratioP1;P1;durP2;ratioP2;P2;SDS_P1;SDS_P2;PMS_P1;PMS_P2;Temp;Humidity;BMP_temperature;BMP_pressure;BME280_temperature;BME280_humidity;BME280_pressure;Samples;Min_cycle;Max_cycle;Signal;HPM_P1;HPM_P2
2022/06/01 00:01:09;;;;;;;3.13;2.90;;;15.40;99.90;;;;;;4997121;28;20545;-43
2022/06/01 00:03:40;;;;;;;2.10;1.95;;;15.30;99.90;;;;;;4996554;28;20318;-47
2022/06/01 00:06:08;;;;;;;2.50;2.13;;;15.10;99.90;;;;;;4996743;28;20301;-45
2022/06/01 00:08:36;;;;;;;2.25;2.15;;;15.00;99.90;;;;;;4996620;28;20529;-43
2022/06/01 00:11:04;;;;;;;1.80;1.70;;;14.90;99.90;;;;;;4994648;28;20224;-44
2022/06/01 00:13:31;;;;;;;2.80;2.03;;;14.90;99.90;;;;;;4996565;28;20428;-43
2022/06/01 00:15:59;;;;;;;2.00;1.90;;;14.80;99.90;;;;;;4997374;28;20504;-40
2022/06/01 00:18:26;;;;;;;2.42;2.20;;;14.70;99.90;;;;;;4996673;28;20278;-41
2022/06/01 00:20:54;;;;;;;2.53;2.33;;;14.70;99.90;;;;;;4991261;28;20221;-43
2022/06/01 00:23:25;;;;;;;2.05;1.95;;;14.60;99.90;;;;;;4996854;28;21143;-45
2022/06/01 00:25:58;;;;;;;3.50;1.90;;;14.50;99.90;;;;;;4996874;28;20321;-42
2022/06/01 00:28:26;;;;;;;3.58;2.70;;;14.50;99.90;;;;;;4995282;28;20489;-44
2022/06/01 00:30:53;;;;;;;2.55;2.35;;;14.40;99.90;;;;;;4997096;28;20210;-42
2022/06/01 00:33:20;;;;;;;2.33;2.22;;;14.40;99.90;;;;;;4996487;28;20238;-42
2022/06/01 00:35:48;;;;;;;2.05;1.83;;;14.40;99.90;;;;;;4996853;28;20233;-44
2022/06/01 00:38:18;;;;;;;2.67;2.45;;;14.40;99.90;;;;;;4996577;28;20210;-41
2022/06/01 00:40:45;;;;;;;2.83;2.53;;;14.40;99.90;;;;;;4996810;28;20576;-42
2022/06/01 00:43:23;;;;;;;2.65;2.45;;;14.30;99.90;;;;;;4996563;28;20269;-48
2022/06/01 00:45:51;;;;;;;3.35;3.05;;;14.30;99.90;;;;;;4995868;28;20256;-46
2022/06/01 00:48:24;;;;;;;2.80;2.60;;;14.30;99.90;;;;;;4996320;28;20237;-41
2022/06/01 00:50:51;;;;;;;4.80;2.80;;;14.30;99.90;;;;;;4996735;28;20209;-44
2022/06/01 00:53:28;;;;;;;2.35;2.15;;;14.40;99.90;;;;;;4996135;28;20624;-46
2022/06/01 00:56:07;;;;;;;4.40;3.97;;;14.30;99.90;;;;;;4992958;28;20217;-47
2022/06/01 00:58:38;;;;;;;3.03;2.70;;;14.30;99.90;;;;;;4991528;28;20405;-44
2022/06/01 01:01:08;;;;;;;3.47;3.17;;;14.40;99.90;;;;;;4979368;28;20536;-49
2022/06/01 01:03:39;;;;;;;2.78;2.65;;;14.50;99.90;;;;;;4996426;28;20226;-43
2022/06/01 01:06:17;;;;;;;3.20;2.90;;;14.50;99.90;;;;;;5000649;28;20234;-43
2022/06/01 01:08:47;;;;;;;4.10;3.78;;;14.50;99.90;;;;;;5000075;28;20210;-46
2022/06/01 01:11:17;;;;;;;3.72;3.42;;;14.50;99.90;;;;;;5000451;28;20206;-42
2022/06/01 01:13:49;;;;;;;3.08;2.38;;;14.50;99.90;;;;;;4999912;28;20583;-44
2022/06/01 01:16:17;;;;;;;3.00;2.80;;;14.40;99.90;;;;;;4999041;28;20210;-42
2022/06/01 01:18:46;;;;;;;2.67;2.47;;;14.30;99.90;;;;;;5000741;28;20278;-42
2022/06/01 01:22:10;;;;;;;3.90;3.50;;;14.30;99.90;;;;;;4999713;28;20242;-42
2022/06/01 01:25:15;;;;;;;2.88;2.67;;;14.20;99.90;;;;;;4998957;28;20210;-46
2022/06/01 01:27:48;;;;;;;3.80;3.60;;;14.10;99.90;;;;;;4997366;28;20291;-42
2022/06/01 01:30:30;;;;;;;3.53;3.22;;;14.10;99.90;;;;;;5001059;28;20209;-46
2022/06/01 01:33:06;;;;;;;4.65;2.90;;;14.10;99.90;;;;;;5000968;28;20364;-41
2022/06/01 01:35:34;;;;;;;3.47;3.17;;;14.10;99.90;;;;;;4993847;28;20201;-45
2022/06/01 01:38:06;;;;;;;3.17;2.70;;;14.00;99.90;;;;;;5001390;28;20548;-42
2022/06/01 01:40:34;;;;;;;2.70;2.53;;;14.10;99.90;;;;;;4997526;28;20210;-45
2022/06/01 01:43:03;;;;;;;2.67;2.47;;;14.20;99.90;;;;;;5000460;28;20232;-43
2022/06/01 01:45:32;;;;;;;2.40;2.30;;;14.40;99.90;;;;;;4996550;28;20221;-46
2022/06/01 01:47:59;;;;;;;3.40;3.10;;;14.50;99.90;;;;;;5000552;28;20289;-44
2022/06/01 01:50:27;;;;;;;3.38;3.08;;;14.60;99.90;;;;;;4992655;28;20208;-44
2022/06/01 01:52:54;;;;;;;3.88;3.58;;;14.60;99.90;;;;;;4999902;28;20236;-44
2022/06/01 01:55:46;;;;;;;4.05;3.65;;;14.40;99.90;;;;;;4999976;28;20391;-41
2022/06/01 01:58:43;;;;;;;3.75;3.47;;;14.50;99.90;;;;;;4999827;28;20220;-44
2022/06/01 02:01:21;;;;;;;2.83;2.58;;;14.30;99.90;;;;;;4999701;28;20264;-45
2022/06/01 02:03:59;;;;;;;2.90;2.70;;;14.30;99.90;;;;;;4998744;28;20252;-42
2022/06/01 02:06:40;;;;;;;2.40;2.28;;;14.30;99.90;;;;;;4992835;28;20574;-42
2022/06/01 02:09:10;;;;;;;3.42;2.92;;;14.40;99.90;;;;;;4997342;28;20211;-44
2022/06/01 02:14:53;;;;;;;3.40;2.90;;;14.30;99.90;;;;;;4993159;28;20212;-47
2022/06/01 02:17:30;;;;;;;2.75;2.55;;;14.40;99.90;;;;;;5001158;28;20215;-44
2022/06/01 02:20:04;;;;;;;4.43;2.95;;;14.40;99.90;;;;;;4999513;28;20228;-45
2022/06/01 02:22:34;;;;;;;2.45;2.35;;;14.60;99.90;;;;;;4994170;28;20280;-43
2022/06/01 02:25:01;;;;;;;2.00;1.70;;;14.40;99.90;;;;;;4999402;28;20245;-45
2022/06/01 02:27:32;;;;;;;2.42;2.30;;;14.30;99.90;;;;;;4998917;28;20568;-41
2022/06/01 02:30:07;;;;;;;3.20;2.90;;;14.10;99.90;;;;;;4999050;28;20492;-49
2022/06/01 02:32:36;;;;;;;2.20;2.05;;;14.00;99.90;;;;;;4999175;28;20521;-45
2022/06/01 02:35:05;;;;;;;3.17;2.42;;;14.10;99.90;;;;;;4995722;28;20213;-46
2022/06/01 02:37:39;;;;;;;3.30;3.10;;;13.90;99.90;;;;;;4998969;28;20210;-45
2022/06/01 02:40:11;;;;;;;2.92;2.72;;;13.90;99.90;;;;;;4999459;28;20228;-42
2022/06/01 02:42:50;;;;;;;3.05;2.75;;;13.60;99.90;;;;;;4998622;28;20237;-46
2022/06/01 02:45:20;;;;;;;4.32;2.88;;;13.50;99.90;;;;;;4997581;28;20213;-54
2022/06/01 02:47:50;;;;;;;3.67;3.40;;;13.70;99.90;;;;;;4998699;28;20243;-48
2022/06/01 02:50:23;;;;;;;5.93;3.28;;;13.60;99.90;;;;;;4998544;28;20206;-42
2022/06/01 02:52:54;;;;;;;4.18;3.45;;;13.30;99.90;;;;;;4981893;28;20228;-44
2022/06/01 02:55:23;;;;;;;4.03;3.58;;;13.30;99.90;;;;;;4998523;28;20206;-42
2022/06/01 02:57:55;;;;;;;4.47;4.15;;;13.40;99.90;;;;;;4998061;28;20201;-43
2022/06/01 03:00:27;;;;;;;10.02;4.90;;;13.30;99.90;;;;;;4981076;28;20248;-43
2022/06/01 03:02:57;;;;;;;5.45;4.95;;;13.40;99.90;;;;;;4998162;28;20225;-42
2022/06/01 03:05:29;;;;;;;4.97;4.65;;;13.30;99.90;;;;;;4998518;28;20452;-46
2022/06/01 03:07:56;;;;;;;7.63;5.28;;;13.30;99.90;;;;;;4998712;28;20299;-44
2022/06/01 03:10:24;;;;;;;7.57;4.95;;;13.20;99.90;;;;;;4980736;28;20396;-40
2022/06/01 03:12:52;;;;;;;4.85;4.45;;;13.10;99.90;;;;;;4998557;28;20300;-43
2022/06/01 03:15:21;;;;;;;4.28;3.95;;;13.30;99.90;;;;;;4998187;28;20375;-46
2022/06/01 03:17:48;;;;;;;4.80;4.40;;;13.30;99.90;;;;;;4999354;28;20244;-43
2022/06/01 03:20:18;;;;;;;4.50;4.05;;;13.50;99.90;;;;;;5000410;28;20219;-45
2022/06/01 03:22:46;;;;;;;4.80;4.40;;;13.40;99.90;;;;;;5001129;28;20627;-44
2022/06/01 03:25:18;;;;;;;5.03;4.70;;;13.40;99.90;;;;;;4999163;28;20288;-49
2022/06/01 03:27:45;;;;;;;3.78;3.47;;;13.30;99.90;;;;;;4998902;28;20639;-44
2022/06/01 03:30:15;;;;;;;4.00;3.70;;;13.30;99.90;;;;;;4999220;28;20209;-49
2022/06/01 03:32:44;;;;;;;4.55;4.20;;;13.20;99.90;;;;;;4997992;28;20284;-45
2022/06/01 03:35:17;;;;;;;8.00;5.55;;;13.10;99.90;;;;;;4998389;28;20217;-47
2022/06/01 03:37:45;;;;;;;5.88;4.72;;;13.00;99.90;;;;;;4998224;28;20216;-40
2022/06/01 03:40:15;;;;;;;5.82;5.32;;;13.20;99.90;;;;;;4998148;28;20213;-49
2022/06/01 03:42:42;;;;;;;5.82;5.22;;;13.50;99.90;;;;;;4997950;28;20237;-41
2022/06/01 03:47:56;;;;;;;4.85;4.47;;;14.90;99.90;;;;;;5001589;28;20274;-41
2022/06/01 03:50:26;;;;;;;5.72;5.32;;;15.60;99.90;;;;;;5001470;28;20599;-48
2022/06/01 03:52:53;;;;;;;3.80;3.40;;;15.60;99.90;;;;;;4998699;28;20533;-42
2022/06/01 03:55:22;;;;;;;4.47;4.07;;;15.70;99.90;;;;;;4998032;28;20198;-41
2022/06/01 03:57:50;;;;;;;4.30;3.90;;;15.60;99.90;;;;;;4997629;28;20483;-41
2022/06/01 04:00:21;;;;;;;3.53;3.23;;;15.70;99.90;;;;;;4997500;28;20516;-43
2022/06/01 04:02:48;;;;;;;3.28;2.97;;;15.70;99.90;;;;;;4997293;28;20471;-43
2022/06/01 04:05:17;;;;;;;3.40;3.10;;;15.60;99.90;;;;;;4997182;28;20219;-45
2022/06/01 04:07:45;;;;;;;3.03;2.83;;;15.60;99.90;;;;;;4997749;28;20463;-44
2022/06/01 04:10:12;;;;;;;3.63;3.38;;;15.50;99.90;;;;;;4996825;28;20376;-49
2022/06/01 04:12:39;;;;;;;4.40;3.97;;;15.40;99.90;;;;;;4997183;28;20432;-46
2022/06/01 04:15:08;;;;;;;3.47;3.13;;;15.20;99.90;;;;;;4996577;28;20209;-41
2022/06/01 04:17:36;;;;;;;3.80;3.50;;;15.10;99.90;;;;;;4990575;28;20290;-44
2022/06/01 04:20:04;;;;;;;3.50;3.20;;;15.20;99.90;;;;;;4996811;28;20521;-48
2022/06/01 04:22:32;;;;;;;2.95;2.75;;;15.30;99.90;;;;;;4996881;28;20229;-50
2022/06/01 04:25:00;;;;;;;3.42;3.13;;;15.30;99.90;;;;;;4997322;28;20224;-45
2022/06/01 04:27:27;;;;;;;3.47;3.17;;;15.50;99.90;;;;;;4990507;28;20237;-40
2022/06/01 04:29:55;;;;;;;4.13;3.73;;;15.50;99.90;;;;;;4996938;28;20278;-43
2022/06/01 04:32:28;;;;;;;3.35;3.13;;;15.50;99.90;;;;;;4996258;28;20524;-47
2022/06/01 04:34:55;;;;;;;3.25;3.00;;;15.60;99.90;;;;;;4997080;28;20220;-44
2022/06/01 04:37:26;;;;;;;4.95;3.15;;;15.70;99.90;;;;;;4996728;28;20211;-48
2022/06/01 04:39:53;;;;;;;3.60;3.40;;;15.80;99.90;;;;;;5002366;28;20273;-46
2022/06/01 04:42:21;;;;;;;4.18;3.88;;;15.70;99.90;;;;;;5002685;28;20245;-45
2022/06/01 04:44:49;;;;;;;3.03;2.80;;;15.80;99.90;;;;;;5003571;28;20219;-47
2022/06/01 04:47:18;;;;;;;4.57;4.17;;;15.70;99.90;;;;;;5003277;28;20481;-45
2022/06/01 04:49:46;;;;;;;5.65;4.35;;;15.60;99.90;;;;;;4998487;28;20458;-48
2022/06/01 04:52:14;;;;;;;4.28;3.88;;;15.70;99.90;;;;;;4994958;28;20230;-44
2022/06/01 04:54:42;;;;;;;4.38;3.85;;;15.90;99.90;;;;;;5002524;28;20216;-41
2022/06/01 04:57:09;;;;;;;3.20;2.90;;;16.00;99.90;;;;;;5001111;28;20262;-45
2022/06/01 04:59:36;;;;;;;4.00;2.70;;;16.00;99.90;;;;;;5003018;28;20452;-51
2022/06/01 05:02:05;;;;;;;4.30;2.47;;;16.10;99.90;;;;;;5003324;28;20890;-44
2022/06/01 05:04:32;;;;;;;2.73;2.53;;;16.20;99.90;;;;;;4989085;28;20423;-43
2022/06/01 05:07:00;;;;;;;2.22;2.03;;;16.20;99.90;;;;;;5000221;28;20484;-46
2022/06/01 05:09:28;;;;;;;2.80;2.60;;;16.10;99.90;;;;;;5002691;28;20451;-42
2022/06/01 05:11:56;;;;;;;3.53;2.53;;;16.10;99.90;;;;;;5002448;28;20476;-51
2022/06/01 05:14:23;;;;;;;3.30;2.67;;;16.20;99.90;;;;;;4996477;28;20439;-47
2022/06/01 05:16:51;;;;;;;2.40;2.20;;;16.10;99.90;;;;;;5002691;28;20202;-45
2022/06/01 05:19:18;;;;;;;2.33;2.20;;;16.30;99.90;;;;;;5002885;28;20468;-47
2022/06/01 05:21:46;;;;;;;2.33;2.07;;;16.30;99.90;;;;;;5002278;28;20491;-44
2022/06/01 05:24:13;;;;;;;2.77;2.40;;;16.40;99.90;;;;;;5002229;28;20449;-44
2022/06/01 05:26:40;;;;;;;2.60;2.27;;;16.50;99.90;;;;;;5002656;28;20452;-43
2022/06/01 05:29:07;;;;;;;5.37;2.13;;;16.50;99.90;;;;;;5002872;28;20472;-42
2022/06/01 05:31:35;;;;;;;2.80;2.60;;;16.70;99.90;;;;;;5002437;28;20814;-43
2022/06/01 05:34:02;;;;;;;3.50;2.77;;;16.80;99.90;;;;;;5002707;28;20445;-47
2022/06/01 05:36:30;;;;;;;3.60;3.07;;;17.00;99.90;;;;;;4994896;28;20802;-45
2022/06/01 05:38:57;;;;;;;1.87;1.77;;;17.20;99.90;;;;;;5002449;28;20745;-40
2022/06/01 05:41:24;;;;;;;2.37;2.20;;;17.20;99.90;;;;;;4996062;28;20421;-46
2022/06/01 05:43:52;;;;;;;4.40;2.63;;;17.40;99.90;;;;;;5002305;28;20432;-42
2022/06/01 05:46:19;;;;;;;3.67;2.13;;;17.50;99.90;;;;;;5002716;28;20445;-43
2022/06/01 05:48:46;;;;;;;3.50;3.23;;;17.70;99.90;;;;;;5002446;28;20527;-43
2022/06/01 05:51:14;;;;;;;4.40;3.23;;;18.10;99.90;;;;;;5000108;28;20469;-40
2022/06/01 05:53:41;;;;;;;2.60;2.40;;;18.20;99.90;;;;;;4999322;28;20464;-47
2022/06/01 05:56:08;;;;;;;3.97;2.80;;;18.40;99.90;;;;;;4999563;28;20443;-45
2022/06/01 05:58:36;;;;;;;2.77;1.97;;;18.40;99.90;;;;;;4999313;28;20429;-47
2022/06/01 06:01:06;;;;;;;2.33;2.13;;;18.50;99.90;;;;;;4999176;28;20428;-48
2022/06/01 06:03:34;;;;;;;4.80;2.83;;;18.50;99.90;;;;;;4996104;28;20955;-44
2022/06/01 06:06:12;;;;;;;2.33;2.13;;;18.60;99.90;;;;;;4992665;28;20457;-51
2022/06/01 06:08:48;;;;;;;4.17;2.37;;;18.60;99.90;;;;;;4999376;28;20552;-44
2022/06/01 06:11:28;;;;;;;4.33;2.40;;;18.70;99.90;;;;;;4999130;28;20437;-48
2022/06/01 06:13:58;;;;;;;4.03;2.80;;;19.00;99.90;;;;;;4999546;28;20668;-47
2022/06/01 06:16:30;;;;;;;6.10;2.80;;;19.20;99.90;;;;;;4998319;28;20453;-47
2022/06/01 06:18:58;;;;;;;3.27;3.00;;;19.50;99.90;;;;;;4999225;28;20445;-47
2022/06/01 06:21:26;;;;;;;2.20;1.90;;;20.00;99.90;;;;;;4998567;28;21062;-45
2022/06/01 06:23:59;;;;;;;3.50;2.83;;;20.90;99.90;;;;;;4999373;28;20486;-47
2022/06/01 06:26:26;;;;;;;2.33;2.20;;;22.10;99.90;;;;;;4998734;28;20801;-48
2022/06/01 06:28:54;;;;;;;3.37;3.07;;;22.60;99.90;;;;;;4999069;28;20462;-53
2022/06/01 06:31:21;;;;;;;3.10;2.83;;;22.60;99.90;;;;;;4998957;28;20410;-45
2022/06/01 06:33:48;;;;;;;5.00;2.80;;;22.40;99.90;;;;;;4992475;28;20425;-47
2022/06/01 06:36:15;;;;;;;3.63;2.70;;;22.30;99.90;;;;;;4999074;28;20407;-44
2022/06/01 06:38:42;;;;;;;5.10;2.90;;;22.50;99.90;;;;;;4995529;28;20526;-49
2022/06/01 06:41:13;;;;;;;2.80;2.30;;;22.40;99.90;;;;;;4996661;28;20490;-48
2022/06/01 06:43:42;;;;;;;2.97;2.77;;;22.30;99.90;;;;;;4998865;28;20525;-47
2022/06/01 06:46:12;;;;;;;2.60;2.07;;;22.10;99.90;;;;;;4998886;28;20452;-52
2022/06/01 06:48:40;;;;;;;3.40;2.50;;;22.00;99.90;;;;;;4993700;28;20562;-47
2022/06/01 06:51:08;;;;;;;2.93;2.70;;;22.30;99.90;;;;;;4994877;28;20436;-51
2022/06/01 06:53:36;;;;;;;6.10;3.17;;;22.40;99.90;;;;;;4998131;28;20434;-46
2022/06/01 06:56:04;;;;;;;3.57;3.27;;;23.40;99.90;;;;;;4998647;28;20479;-48
2022/06/01 06:58:32;;;;;;;2.77;2.57;;;24.60;99.90;;;;;;4998577;28;20447;-45
2022/06/01 07:00:59;;;;;;;2.37;2.13;;;26.00;99.90;;;;;;4991752;28;20540;-49
2022/06/01 07:03:27;;;;;;;3.37;3.10;;;27.50;99.90;;;;;;4997343;28;20523;-47
2022/06/01 07:06:11;;;;;;;2.50;2.03;;;28.40;93.20;;;;;;4997879;28;20452;-47
2022/06/01 07:08:49;;;;;;;2.70;2.10;;;29.00;89.50;;;;;;5002365;28;20488;-45
2022/06/01 07:11:18;;;;;;;3.20;2.97;;;29.60;83.40;;;;;;5002034;28;20472;-50
2022/06/01 07:13:47;;;;;;;4.07;2.97;;;29.20;82.20;;;;;;5003123;28;20662;-49
2022/06/01 07:16:18;;;;;;;3.90;2.43;;;29.50;82.20;;;;;;5000893;28;20443;-48
2022/06/01 07:18:50;;;;;;;3.07;2.83;;;30.10;79.00;;;;;;5001912;28;20480;-48
2022/06/01 07:21:19;;;;;;;2.73;2.53;;;30.60;76.40;;;;;;5008257;28;20458;-53
2022/06/01 07:23:47;;;;;;;2.03;1.93;;;31.40;74.20;;;;;;4999939;28;20453;-46
2022/06/01 07:26:19;;;;;;;3.77;2.60;;;31.70;70.20;;;;;;4999680;28;20439;-48
2022/06/01 07:28:47;;;;;;;2.20;2.00;;;30.80;71.40;;;;;;5001296;28;20482;-45
2022/06/01 07:31:15;;;;;;;2.20;2.10;;;32.00;70.40;;;;;;5003585;28;20454;-51
2022/06/01 07:33:43;;;;;;;1.97;1.87;;;31.90;68.00;;;;;;5004847;28;20463;-48
2022/06/01 07:36:13;;;;;;;3.20;3.00;;;29.60;72.80;;;;;;5010714;28;20517;-48
2022/06/01 07:44:17;;;;;;;6.13;2.40;;;29.40;78.40;;;;;;4998121;28;20449;-48
2022/06/01 07:46:44;;;;;;;2.60;2.40;;;29.10;77.60;;;;;;4999688;28;20506;-47
2022/06/01 07:49:14;;;;;;;2.50;2.30;;;28.50;80.50;;;;;;4997107;28;20974;-47
2022/06/01 07:52:03;;;;;;;1.97;1.87;;;30.30;76.60;;;;;;4995195;28;20675;-53
2022/06/01 07:54:30;;;;;;;3.17;2.97;;;30.40;73.60;;;;;;5004220;28;20446;-49
2022/06/01 07:56:57;;;;;;;1.73;1.63;;;31.80;70.80;;;;;;4999792;28;20983;-49
2022/06/01 07:59:24;;;;;;;2.60;2.40;;;33.80;66.60;;;;;;5005856;28;20450;-48
2022/06/01 08:01:52;;;;;;;2.60;2.40;;;34.90;61.50;;;;;;4997308;28;20559;-48
2022/06/01 08:04:20;;;;;;;2.90;2.60;;;35.00;61.10;;;;;;4998352;28;20456;-43
2022/06/01 08:06:48;;;;;;;4.80;3.13;;;35.10;59.80;;;;;;4997066;28;20451;-46
2022/06/01 08:09:23;;;;;;;2.93;2.40;;;35.00;58.40;;;;;;4997028;28;20676;-47
2022/06/01 08:14:36;;;;;;;2.43;2.03;;;34.90;58.30;;;;;;4997182;28;20445;-46
2022/06/01 08:17:03;;;;;;;3.10;2.27;;;34.50;57.80;;;;;;5000011;28;20439;-52
2022/06/01 08:19:30;;;;;;;2.53;2.33;;;35.00;57.50;;;;;;4996741;28;20480;-49
2022/06/01 08:21:58;;;;;;;4.80;2.53;;;35.40;56.60;;;;;;4999024;28;20463;-52
2022/06/01 08:24:26;;;;;;;2.80;2.60;;;35.00;56.30;;;;;;4999793;28;20459;-45
2022/06/01 08:26:53;;;;;;;4.50;2.20;;;34.00;56.90;;;;;;4982225;28;20514;-44
2022/06/01 08:29:20;;;;;;;2.37;2.17;;;34.60;57.10;;;;;;4997570;28;20479;-45
2022/06/01 08:31:48;;;;;;;2.53;2.33;;;35.50;55.90;;;;;;4997144;28;20487;-49
2022/06/01 08:34:16;;;;;;;4.20;3.90;;;35.40;56.00;;;;;;4996748;28;20618;-49
2022/06/01 08:36:43;;;;;;;3.20;2.10;;;36.40;55.60;;;;;;4997265;28;20443;-46
2022/06/01 08:39:10;;;;;;;3.33;2.30;;;36.80;54.40;;;;;;4996614;28;20451;-49
2022/06/01 08:41:39;;;;;;;1.63;1.53;;;37.00;53.00;;;;;;4997079;28;20511;-45
2022/06/01 08:44:22;;;;;;;2.87;2.30;;;36.90;52.30;;;;;;4996926;28;20461;-52
2022/06/01 08:46:52;;;;;;;5.47;1.83;;;35.30;52.20;;;;;;4997103;28;20819;-46
2022/06/01 08:49:33;;;;;;;4.67;3.80;;;33.10;55.60;;;;;;4996176;28;20591;-51
2022/06/01 08:52:01;;;;;;;1.60;1.50;;;34.10;54.90;;;;;;4996622;28;20510;-50
2022/06/01 08:54:29;;;;;;;1.97;1.67;;;34.70;53.00;;;;;;4996111;28;20443;-48
2022/06/01 08:57:02;;;;;;;1.90;1.80;;;34.90;52.80;;;;;;4997079;28;20446;-52
2022/06/01 08:59:37;;;;;;;2.67;1.60;;;36.10;50.70;;;;;;4995339;28;20530;-49
2022/06/01 09:02:07;;;;;;;2.43;1.60;;;36.80;49.50;;;;;;4996953;28;20837;-47
2022/06/01 09:04:38;;;;;;;2.23;1.70;;;35.60;49.70;;;;;;4996644;28;20451;-46
2022/06/01 09:07:29;;;;;;;1.90;1.80;;;35.40;50.50;;;;;;4996551;28;20493;-50
2022/06/01 09:10:20;;;;;;;2.83;2.27;;;36.20;50.40;;;;;;4997025;28;20549;-46
2022/06/01 09:13:07;;;;;;;2.03;1.83;;;36.60;48.80;;;;;;4991872;28;20502;-46
2022/06/01 09:16:06;;;;;;;1.70;1.60;;;35.40;49.50;;;;;;4995480;28;20738;-43
2022/06/01 09:18:51;;;;;;;1.70;1.60;;;35.10;49.20;;;;;;4991175;28;20447;-46
2022/06/01 09:24:24;;;;;;;1.90;1.80;;;34.30;49.40;;;;;;4996634;28;20676;-50
2022/06/01 09:27:09;;;;;;;1.87;1.77;;;33.70;49.80;;;;;;4999942;28;20811;-42
2022/06/01 09:29:51;;;;;;;2.00;1.83;;;33.50;49.50;;;;;;4997321;28;20482;-47
2022/06/01 09:32:40;;;;;;;1.63;1.53;;;32.00;51.80;;;;;;5000134;28;20674;-46
2022/06/01 09:35:14;;;;;;;2.10;1.67;;;29.50;54.60;;;;;;4998045;28;20443;-48
2022/06/01 09:37:47;;;;;;;2.10;1.80;;;27.40;58.00;;;;;;5000958;28;20742;-51
2022/06/01 09:40:26;;;;;;;3.97;1.60;;;26.30;60.70;;;;;;4998998;28;20448;-48
2022/06/01 09:42:55;;;;;;;2.00;1.87;;;25.90;61.70;;;;;;5001164;28;20472;-45
2022/06/01 09:45:26;;;;;;;3.37;2.33;;;26.00;63.70;;;;;;4999661;28;20447;-50
2022/06/01 09:48:07;;;;;;;1.60;1.50;;;25.80;64.20;;;;;;5000300;28;20569;-46
2022/06/01 09:50:37;;;;;;;2.33;1.90;;;25.50;63.00;;;;;;4999093;28;20444;-47
2022/06/01 09:53:22;;;;;;;2.13;1.93;;;25.20;63.50;;;;;;4999837;28;20534;-43
2022/06/01 09:55:58;;;;;;;2.13;1.73;;;24.80;64.90;;;;;;4999524;28;20440;-47
2022/06/01 10:07:19;;;;;;;1.93;1.83;;;24.60;67.20;;;;;;4999366;28;20448;-50
2022/06/01 10:09:52;;;;;;;1.77;1.67;;;24.40;65.90;;;;;;4999302;28;20495;-46
2022/06/01 10:12:31;;;;;;;4.20;2.10;;;24.20;66.20;;;;;;4999125;28;20509;-48
2022/06/01 10:14:58;;;;;;;3.53;1.67;;;24.40;66.40;;;;;;4982501;28;20449;-46
2022/06/01 10:17:35;;;;;;;2.30;2.10;;;24.70;67.60;;;;;;4998508;28;20472;-52
2022/06/01 10:20:26;;;;;;;8.40;2.67;;;25.00;65.70;;;;;;4999092;28;20518;-43
2022/06/01 10:23:09;;;;;;;1.97;1.87;;;24.60;65.40;;;;;;4998948;28;20486;-51
2022/06/01 10:26:03;;;;;;;1.90;1.80;;;24.30;67.40;;;;;;4991280;28;20466;-46
2022/06/01 10:28:37;;;;;;;2.03;1.93;;;24.20;66.70;;;;;;4994836;28;20483;-48
2022/06/01 10:31:31;;;;;;;1.80;1.60;;;24.30;66.90;;;;;;4999088;28;20443;-45
2022/06/01 10:34:17;;;;;;;1.97;1.87;;;24.70;66.10;;;;;;4998531;28;20443;-47
2022/06/01 10:37:19;;;;;;;2.60;2.00;;;24.30;66.20;;;;;;4998203;28;20448;-48
2022/06/01 10:39:53;;;;;;;2.37;1.27;;;24.20;66.10;;;;;;4911069;29;20692;-49
2022/06/01 10:45:27;;;;;;;1.53;1.40;;;24.20;65.60;;;;;;4998215;28;20770;-48
2022/06/01 10:48:16;;;;;;;2.50;1.60;;;24.50;66.80;;;;;;4998847;28;20562;-49
2022/06/01 10:51:01;;;;;;;3.10;1.77;;;24.60;66.90;;;;;;4998352;28;20502;-44
2022/06/01 10:53:52;;;;;;;1.93;1.80;;;25.10;66.20;;;;;;4996927;28;20466;-46
2022/06/01 10:56:22;;;;;;;4.50;1.90;;;25.60;64.00;;;;;;5001937;28;20458;-49
2022/06/01 10:58:52;;;;;;;2.20;1.87;;;25.50;63.50;;;;;;5000250;28;20457;-49
2022/06/01 11:01:32;;;;;;;1.87;1.77;;;25.40;65.30;;;;;;4997735;28;20459;-45
2022/06/01 11:04:18;;;;;;;2.70;1.93;;;25.80;67.10;;;;;;4995036;28;20832;-46
2022/06/01 11:07:17;;;;;;;2.00;1.73;;;25.90;68.40;;;;;;4993581;28;20453;-47
2022/06/01 11:10:15;;;;;;;2.00;1.70;;;25.70;69.20;;;;;;4992142;28;20487;-47
2022/06/01 11:13:00;;;;;;;2.10;1.90;;;26.30;67.70;;;;;;4991547;28;20552;-45
2022/06/01 11:15:36;;;;;;;2.17;2.00;;;26.10;65.00;;;;;;4995474;28;20443;-47
2022/06/01 11:18:38;;;;;;;5.10;2.40;;;25.70;64.70;;;;;;4998189;28;20452;-44
2022/06/01 11:21:08;;;;;;;3.10;1.90;;;25.70;66.90;;;;;;4994195;28;20474;-44
2022/06/01 11:24:05;;;;;;;3.00;2.10;;;25.90;67.10;;;;;;4997642;28;20438;-43
2022/06/01 11:27:23;;;;;;;1.63;1.53;;;26.00;67.80;;;;;;4993460;28;20435;-45
2022/06/01 11:30:13;;;;;;;1.90;1.80;;;25.80;67.70;;;;;;4996503;28;20547;-44
2022/06/01 11:32:57;;;;;;;2.30;1.97;;;25.80;68.60;;;;;;4992006;28;20659;-45
2022/06/01 11:35:46;;;;;;;2.90;1.60;;;25.90;68.90;;;;;;4998040;28;20543;-49
2022/06/01 11:38:36;;;;;;;2.37;2.17;;;25.80;67.20;;;;;;4997554;28;20420;-48
2022/06/01 11:41:11;;;;;;;2.67;1.90;;;25.80;67.80;;;;;;4997579;28;20449;-44
2022/06/01 11:43:49;;;;;;;1.70;1.60;;;25.80;68.30;;;;;;4990780;28;20845;-47
2022/06/01 11:46:23;;;;;;;2.90;1.90;;;25.40;65.10;;;;;;4997741;28;20436;-49
2022/06/01 11:48:57;;;;;;;2.10;1.50;;;25.20;66.60;;;;;;4997611;28;20666;-49
2022/06/01 11:51:36;;;;;;;2.50;1.70;;;25.10;66.40;;;;;;4997105;28;20986;-47
2022/06/01 11:54:17;;;;;;;1.70;1.60;;;25.00;65.70;;;;;;4998544;28;20418;-47
2022/06/01 11:56:59;;;;;;;3.53;2.00;;;25.10;64.90;;;;;;4997721;28;20812;-50
2022/06/01 11:59:45;;;;;;;3.70;2.10;;;25.10;65.20;;;;;;4989478;28;20463;-47
2022/06/01 12:02:41;;;;;;;2.50;2.33;;;25.50;64.30;;;;;;4996886;28;20467;-46
2022/06/01 12:05:27;;;;;;;4.90;2.30;;;25.70;70.90;;;;;;4997418;28;20448;-50
2022/06/01 12:08:03;;;;;;;6.63;2.57;;;25.80;73.60;;;;;;4997606;28;20457;-47
2022/06/01 12:10:51;;;;;;;1.50;1.40;;;26.00;75.40;;;;;;4995229;28;20975;-46
2022/06/01 12:13:30;;;;;;;1.80;1.70;;;25.80;74.30;;;;;;4997489;28;20489;-47
2022/06/01 12:16:19;;;;;;;2.20;2.00;;;25.30;75.80;;;;;;4993385;28;20473;-48
2022/06/01 12:19:21;;;;;;;2.67;1.80;;;25.00;79.10;;;;;;4992599;28;20520;-48
2022/06/01 12:28:30;;;;;;;2.43;2.23;;;25.20;79.70;;;;;;4983088;28;20795;-45
2022/06/01 12:28:31;;;;;;;2.40;1.83;;;25.80;72.70;;;;;;4967949;28;20624;-49
2022/06/01 12:31:18;;;;;;;2.70;1.97;;;25.90;72.40;;;;;;4981302;28;20438;-46
2022/06/01 12:34:24;;;;;;;1.50;1.40;;;25.60;73.10;;;;;;4984770;28;20519;-46
2022/06/01 12:37:18;;;;;;;2.60;2.40;;;25.20;72.80;;;;;;4978755;28;20467;-50
2022/06/01 12:39:59;;;;;;;2.00;1.80;;;24.90;70.00;;;;;;4981847;28;20447;-48
2022/06/01 12:42:38;;;;;;;2.10;1.60;;;24.80;70.30;;;;;;4984205;28;20459;-45
2022/06/01 12:45:12;;;;;;;2.07;1.70;;;24.70;70.40;;;;;;4981718;28;20425;-47
2022/06/01 12:47:55;;;;;;;1.53;1.30;;;24.50;72.10;;;;;;4980469;28;20692;-44
2022/06/01 12:50:30;;;;;;;1.53;1.40;;;24.50;69.80;;;;;;4976353;28;20488;-43
2022/06/01 12:53:23;;;;;;;1.70;1.60;;;24.40;71.60;;;;;;4977064;28;20456;-44
2022/06/01 12:56:26;;;;;;;2.20;2.00;;;24.40;70.90;;;;;;4984437;28;20860;-45
2022/06/01 12:58:56;;;;;;;3.00;2.23;;;24.20;73.20;;;;;;4980221;28;20467;-51
2022/06/01 13:01:32;;;;;;;3.33;1.97;;;23.90;81.20;;;;;;4982361;28;20444;-46
2022/06/01 13:04:01;;;;;;;1.70;1.60;;;23.60;89.20;;;;;;4983122;28;20436;-52
2022/06/01 13:06:30;;;;;;;2.07;1.87;;;23.40;90.40;;;;;;4982286;28;20771;-48
2022/06/01 13:09:08;;;;;;;2.03;1.83;;;23.20;91.00;;;;;;5003842;28;20417;-46
2022/06/01 13:11:37;;;;;;;1.73;1.57;;;22.90;89.50;;;;;;5001246;28;20451;-50
2022/06/01 13:14:09;;;;;;;2.50;1.60;;;22.80;89.00;;;;;;4997660;28;20514;-46
2022/06/01 13:16:47;;;;;;;2.30;2.20;;;22.80;90.20;;;;;;4999688;28;20443;-50
2022/06/01 13:19:21;;;;;;;2.27;1.70;;;22.70;89.80;;;;;;4997239;28;20414;-44
2022/06/01 13:22:02;;;;;;;2.70;1.10;;;22.80;89.90;;;;;;4985593;28;20463;-42
2022/06/01 13:24:49;;;;;;;2.43;2.27;;;23.00;87.40;;;;;;4986032;28;20443;-46
2022/06/01 13:27:22;;;;;;;2.20;2.07;;;23.40;84.30;;;;;;4993634;28;20458;-46
2022/06/01 13:29:58;;;;;;;1.20;1.10;;;23.80;81.40;;;;;;5000009;28;20505;-43
2022/06/01 13:32:34;;;;;;;1.50;1.40;;;23.70;79.50;;;;;;5006347;28;20434;-43
2022/06/01 13:35:18;;;;;;;1.63;1.53;;;23.40;80.00;;;;;;4999675;28;20770;-45
2022/06/01 13:37:45;;;;;;;1.67;1.57;;;23.10;82.70;;;;;;4996692;28;20451;-44
2022/06/01 13:40:27;;;;;;;2.80;1.10;;;22.90;81.70;;;;;;4996700;28;20457;-45
2022/06/01 13:43:01;;;;;;;1.53;1.43;;;22.70;82.50;;;;;;5003234;28;20484;-42
2022/06/01 13:46:02;;;;;;;1.33;1.23;;;22.60;82.00;;;;;;5007163;28;20749;-43
2022/06/01 13:48:48;;;;;;;1.40;1.30;;;22.30;82.10;;;;;;4999834;28;20451;-49
2022/06/01 13:51:46;;;;;;;1.50;1.40;;;21.90;84.00;;;;;;4998395;28;20442;-42
2022/06/01 13:54:27;;;;;;;1.60;1.50;;;21.90;86.70;;;;;;4999525;28;20446;-50
2022/06/01 13:57:24;;;;;;;3.43;1.90;;;21.80;87.00;;;;;;4992226;28;20442;-44